sensor_id;sensor_type;location;lat;lon;timestamp;temperature;humidity
38746;DHT22;24488;0.000;0.000;2022-08-19T00:01:31;25.00;52.30
38746;DHT22;24488;0.000;0.000;2022-08-19T00:03:57;25.10;52.40
38746;DHT22;24488;0.000;0.000;2022-08-19T00:06:23;25.00;51.90
38746;DHT22;24488;0.000;0.000;2022-08-19T00:08:49;25.10;52.40
38746;DHT22;24488;0.000;0.000;2022-08-19T00:11:16;25.10;52.40
38746;DHT22;24488;0.000;0.000;2022-08-19T00:13:42;25.10;52.40
38746;DHT22;24488;0.000;0.000;2022-08-19T00:16:08;25.00;51.90
38746;DHT22;24488;0.000;0.000;2022-08-19T00:18:34;25.10;52.40
38746;DHT22;24488;0.000;0.000;2022-08-19T00:21:00;25.00;52.30
38746;DHT22;24488;0.000;0.000;2022-08-19T00:23:25;25.00;52.90
38746;DHT22;24488;0.000;0.000;2022-08-19T00:25:51;25.00;51.90
38746;DHT22;24488;0.000;0.000;2022-08-19T00:28:17;25.10;52.50
38746;DHT22;24488;0.000;0.000;2022-08-19T00:30:43;25.00;52.40
38746;DHT22;24488;0.000;0.000;2022-08-19T00:33:09;25.10;52.40
38746;DHT22;24488;0.000;0.000;2022-08-19T00:35:35;25.00;51.90
38746;DHT22;24488;0.000;0.000;2022-08-19T00:38:03;25.00;52.40
38746;DHT22;24488;0.000;0.000;2022-08-19T00:40:30;25.00;52.30
38746;DHT22;24488;0.000;0.000;2022-08-19T00:42:56;25.00;52.30
38746;DHT22;24488;0.000;0.000;2022-08-19T00:45:24;25.00;51.80
38746;DHT22;24488;0.000;0.000;2022-08-19T00:47:51;25.00;52.30
38746;DHT22;24488;0.000;0.000;2022-08-19T00:50:18;25.00;52.30
38746;DHT22;24488;0.000;0.000;2022-08-19T00:52:47;25.00;52.20
38746;DHT22;24488;0.000;0.000;2022-08-19T00:55:16;25.00;51.80
38746;DHT22;24488;0.000;0.000;2022-08-19T00:57:46;24.50;52.00
38746;DHT22;24488;0.000;0.000;2022-08-19T01:00:15;25.00;52.20
38746;DHT22;24488;0.000;0.000;2022-08-19T01:02:42;25.10;52.30
38746;DHT22;24488;0.000;0.000;2022-08-19T01:05:09;25.00;51.80
38746;DHT22;24488;0.000;0.000;2022-08-19T01:07:37;24.90;52.20
38746;DHT22;24488;0.000;0.000;2022-08-19T01:10:05;25.00;52.30
38746;DHT22;24488;0.000;0.000;2022-08-19T01:12:33;25.00;52.20
38746;DHT22;24488;0.000;0.000;2022-08-19T01:15:00;25.00;51.80
38746;DHT22;24488;0.000;0.000;2022-08-19T01:17:25;25.00;52.20
38746;DHT22;24488;0.000;0.000;2022-08-19T01:19:51;25.00;52.10
38746;DHT22;24488;0.000;0.000;2022-08-19T01:24:49;25.00;51.70
38746;DHT22;24488;0.000;0.000;2022-08-19T01:27:15;25.00;52.20
38746;DHT22;24488;0.000;0.000;2022-08-19T01:29:42;24.90;52.10
38746;DHT22;24488;0.000;0.000;2022-08-19T01:32:12;25.00;52.10
38746;DHT22;24488;0.000;0.000;2022-08-19T01:34:39;25.00;51.60
38746;DHT22;24488;0.000;0.000;2022-08-19T01:37:07;25.00;52.10
38746;DHT22;24488;0.000;0.000;2022-08-19T01:39:36;25.10;52.00
38746;DHT22;24488;0.000;0.000;2022-08-19T01:42:02;25.00;52.00
38746;DHT22;24488;0.000;0.000;2022-08-19T01:44:28;25.00;51.60
38746;DHT22;24488;0.000;0.000;2022-08-19T01:46:54;25.00;52.10
38746;DHT22;24488;0.000;0.000;2022-08-19T01:49:21;25.00;52.00
38746;DHT22;24488;0.000;0.000;2022-08-19T01:51:48;25.00;52.10
38746;DHT22;24488;0.000;0.000;2022-08-19T01:54:15;25.00;51.60
38746;DHT22;24488;0.000;0.000;2022-08-19T01:56:42;25.00;52.70
38746;DHT22;24488;0.000;0.000;2022-08-19T01:59:14;25.00;52.00
38746;DHT22;24488;0.000;0.000;2022-08-19T02:01:42;25.00;52.00
38746;DHT22;24488;0.000;0.000;2022-08-19T02:04:08;25.00;51.50
38746;DHT22;24488;0.000;0.000;2022-08-19T02:06:34;25.00;51.90
38746;DHT22;24488;0.000;0.000;2022-08-19T02:09:01;25.00;51.90
38746;DHT22;24488;0.000;0.000;2022-08-19T02:11:28;25.10;52.00
38746;DHT22;24488;0.000;0.000;2022-08-19T02:13:56;25.00;51.90
38746;DHT22;24488;0.000;0.000;2022-08-19T02:16:23;25.10;51.40
38746;DHT22;24488;0.000;0.000;2022-08-19T02:18:48;25.00;51.80
38746;DHT22;24488;0.000;0.000;2022-08-19T02:21:15;25.10;51.70
38746;DHT22;24488;0.000;0.000;2022-08-19T02:23:41;25.10;51.70
38746;DHT22;24488;0.000;0.000;2022-08-19T02:26:07;25.10;51.30
38746;DHT22;24488;0.000;0.000;2022-08-19T02:28:33;25.10;51.90
38746;DHT22;24488;0.000;0.000;2022-08-19T02:30:59;25.10;51.80
38746;DHT22;24488;0.000;0.000;2022-08-19T02:33:26;25.10;51.70
38746;DHT22;24488;0.000;0.000;2022-08-19T02:35:51;25.10;51.30
38746;DHT22;24488;0.000;0.000;2022-08-19T02:38:17;25.10;51.70
38746;DHT22;24488;0.000;0.000;2022-08-19T02:40:52;25.10;51.70
38746;DHT22;24488;0.000;0.000;2022-08-19T02:43:22;25.00;51.60
38746;DHT22;24488;0.000;0.000;2022-08-19T02:45:48;25.10;51.30
38746;DHT22;24488;0.000;0.000;2022-08-19T02:48:18;25.10;51.70
38746;DHT22;24488;0.000;0.000;2022-08-19T02:50:44;25.10;51.70
38746;DHT22;24488;0.000;0.000;2022-08-19T02:53:10;25.10;51.70
38746;DHT22;24488;0.000;0.000;2022-08-19T02:55:41;25.10;51.10
38746;DHT22;24488;0.000;0.000;2022-08-19T02:58:08;25.10;51.60
38746;DHT22;24488;0.000;0.000;2022-08-19T03:00:34;25.10;51.70
38746;DHT22;24488;0.000;0.000;2022-08-19T03:02:59;25.10;51.80
38746;DHT22;24488;0.000;0.000;2022-08-19T03:05:25;25.10;51.40
38746;DHT22;24488;0.000;0.000;2022-08-19T03:07:52;25.00;51.80
38746;DHT22;24488;0.000;0.000;2022-08-19T03:10:18;25.10;51.80
38746;DHT22;24488;0.000;0.000;2022-08-19T03:12:43;25.00;51.80
38746;DHT22;24488;0.000;0.000;2022-08-19T03:15:11;25.00;51.40
38746;DHT22;24488;0.000;0.000;2022-08-19T03:17:36;25.00;51.80
38746;DHT22;24488;0.000;0.000;2022-08-19T03:20:02;25.00;51.70
38746;DHT22;24488;0.000;0.000;2022-08-19T03:22:29;25.10;51.60
38746;DHT22;24488;0.000;0.000;2022-08-19T03:24:55;25.10;51.10
38746;DHT22;24488;0.000;0.000;2022-08-19T03:27:21;25.10;51.60
38746;DHT22;24488;0.000;0.000;2022-08-19T03:29:47;25.10;51.60
38746;DHT22;24488;0.000;0.000;2022-08-19T03:32:13;25.10;51.60
38746;DHT22;24488;0.000;0.000;2022-08-19T03:34:38;25.00;51.20
38746;DHT22;24488;0.000;0.000;2022-08-19T03:37:05;25.10;51.60
38746;DHT22;24488;0.000;0.000;2022-08-19T03:39:33;25.10;51.60
38746;DHT22;24488;0.000;0.000;2022-08-19T03:41:59;25.10;51.50
38746;DHT22;24488;0.000;0.000;2022-08-19T03:44:28;25.10;51.00
38746;DHT22;24488;0.000;0.000;2022-08-19T03:46:56;25.10;51.50
38746;DHT22;24488;0.000;0.000;2022-08-19T03:49:23;25.10;51.40
38746;DHT22;24488;0.000;0.000;2022-08-19T03:51:49;25.10;51.40
38746;DHT22;24488;0.000;0.000;2022-08-19T03:54:16;25.10;51.00
38746;DHT22;24488;0.000;0.000;2022-08-19T03:56:44;25.10;51.40
38746;DHT22;24488;0.000;0.000;2022-08-19T03:59:12;25.10;51.40
38746;DHT22;24488;0.000;0.000;2022-08-19T04:01:40;25.10;51.40
38746;DHT22;24488;0.000;0.000;2022-08-19T04:04:06;25.00;51.60
38746;DHT22;24488;0.000;0.000;2022-08-19T04:06:32;24.90;51.40
38746;DHT22;24488;0.000;0.000;2022-08-19T04:09:00;24.90;51.90
38746;DHT22;24488;0.000;0.000;2022-08-19T04:11:29;24.90;52.00
38746;DHT22;24488;0.000;0.000;2022-08-19T04:14:09;24.90;52.00
38746;DHT22;24488;0.000;0.000;2022-08-19T04:16:36;24.90;51.50
38746;DHT22;24488;0.000;0.000;2022-08-19T04:19:03;25.00;51.90
38746;DHT22;24488;0.000;0.000;2022-08-19T04:21:30;25.00;51.80
38746;DHT22;24488;0.000;0.000;2022-08-19T04:23:56;25.00;51.90
38746;DHT22;24488;0.000;0.000;2022-08-19T04:26:26;25.00;51.50
38746;DHT22;24488;0.000;0.000;2022-08-19T04:28:53;25.00;51.90
38746;DHT22;24488;0.000;0.000;2022-08-19T04:31:20;24.90;51.90
38746;DHT22;24488;0.000;0.000;2022-08-19T04:33:48;25.00;51.90
38746;DHT22;24488;0.000;0.000;2022-08-19T04:36:17;24.90;51.40
38746;DHT22;24488;0.000;0.000;2022-08-19T04:38:46;24.90;51.90
38746;DHT22;24488;0.000;0.000;2022-08-19T04:41:15;25.00;52.00
38746;DHT22;24488;0.000;0.000;2022-08-19T04:43:59;24.90;51.90
38746;DHT22;24488;0.000;0.000;2022-08-19T04:46:25;25.00;51.40
38746;DHT22;24488;0.000;0.000;2022-08-19T04:48:51;25.00;51.90
38746;DHT22;24488;0.000;0.000;2022-08-19T04:51:17;24.90;51.80
38746;DHT22;24488;0.000;0.000;2022-08-19T04:53:43;25.00;51.90
38746;DHT22;24488;0.000;0.000;2022-08-19T04:56:10;24.90;51.40
38746;DHT22;24488;0.000;0.000;2022-08-19T04:58:37;24.90;51.90
38746;DHT22;24488;0.000;0.000;2022-08-19T05:01:04;25.00;51.90
38746;DHT22;24488;0.000;0.000;2022-08-19T05:03:30;24.90;51.80
38746;DHT22;24488;0.000;0.000;2022-08-19T05:06:04;25.00;51.40
38746;DHT22;24488;0.000;0.000;2022-08-19T05:08:34;25.00;51.80
38746;DHT22;24488;0.000;0.000;2022-08-19T05:11:01;25.00;51.80
38746;DHT22;24488;0.000;0.000;2022-08-19T05:13:28;25.00;51.70
38746;DHT22;24488;0.000;0.000;2022-08-19T05:15:54;25.00;51.30
38746;DHT22;24488;0.000;0.000;2022-08-19T05:18:21;25.00;51.80
38746;DHT22;24488;0.000;0.000;2022-08-19T05:21:06;25.00;51.80
38746;DHT22;24488;0.000;0.000;2022-08-19T05:23:55;25.00;51.70
38746;DHT22;24488;0.000;0.000;2022-08-19T05:26:21;24.90;51.40
38746;DHT22;24488;0.000;0.000;2022-08-19T05:28:46;24.90;51.90
38746;DHT22;24488;0.000;0.000;2022-08-19T05:31:12;24.90;51.90
38746;DHT22;24488;0.000;0.000;2022-08-19T05:33:38;25.00;51.90
38746;DHT22;24488;0.000;0.000;2022-08-19T05:36:05;25.00;51.40
38746;DHT22;24488;0.000;0.000;2022-08-19T05:38:33;24.90;51.80
38746;DHT22;24488;0.000;0.000;2022-08-19T05:40:59;25.10;51.90
38746;DHT22;24488;0.000;0.000;2022-08-19T05:43:24;25.00;51.80
38746;DHT22;24488;0.000;0.000;2022-08-19T05:45:50;25.00;51.40
38746;DHT22;24488;0.000;0.000;2022-08-19T05:48:16;25.10;51.90
38746;DHT22;24488;0.000;0.000;2022-08-19T05:50:45;24.90;51.90
38746;DHT22;24488;0.000;0.000;2022-08-19T05:53:12;24.90;51.80
38746;DHT22;24488;0.000;0.000;2022-08-19T05:55:38;25.00;51.30
38746;DHT22;24488;0.000;0.000;2022-08-19T05:58:04;25.00;51.60
38746;DHT22;24488;0.000;0.000;2022-08-19T06:00:32;25.00;51.60
38746;DHT22;24488;0.000;0.000;2022-08-19T06:02:59;25.10;51.60
38746;DHT22;24488;0.000;0.000;2022-08-19T06:05:31;25.10;51.10
38746;DHT22;24488;0.000;0.000;2022-08-19T06:07:57;25.10;51.50
38746;DHT22;24488;0.000;0.000;2022-08-19T06:10:24;25.10;51.50
38746;DHT22;24488;0.000;0.000;2022-08-19T06:12:51;25.10;51.40
38746;DHT22;24488;0.000;0.000;2022-08-19T06:15:17;25.10;50.90
38746;DHT22;24488;0.000;0.000;2022-08-19T06:17:43;25.10;51.40
38746;DHT22;24488;0.000;0.000;2022-08-19T06:20:12;25.10;51.40
38746;DHT22;24488;0.000;0.000;2022-08-19T06:22:43;25.10;51.40
38746;DHT22;24488;0.000;0.000;2022-08-19T06:25:11;25.10;51.00
38746;DHT22;24488;0.000;0.000;2022-08-19T06:27:37;25.10;51.50
38746;DHT22;24488;0.000;0.000;2022-08-19T06:30:03;25.00;51.40
38746;DHT22;24488;0.000;0.000;2022-08-19T06:32:29;25.10;51.50
38746;DHT22;24488;0.000;0.000;2022-08-19T06:34:55;25.10;51.00
38746;DHT22;24488;0.000;0.000;2022-08-19T06:37:21;25.10;51.40
38746;DHT22;24488;0.000;0.000;2022-08-19T06:39:47;25.10;51.40
38746;DHT22;24488;0.000;0.000;2022-08-19T06:42:13;25.00;51.30
38746;DHT22;24488;0.000;0.000;2022-08-19T06:44:42;25.00;51.00
38746;DHT22;24488;0.000;0.000;2022-08-19T06:47:10;25.00;51.50
38746;DHT22;24488;0.000;0.000;2022-08-19T06:49:40;25.00;51.60
38746;DHT22;24488;0.000;0.000;2022-08-19T06:52:06;25.00;51.80
38746;DHT22;24488;0.000;0.000;2022-08-19T06:54:32;25.00;51.10
38746;DHT22;24488;0.000;0.000;2022-08-19T06:56:59;25.00;51.60
38746;DHT22;24488;0.000;0.000;2022-08-19T06:59:27;25.10;51.50
38746;DHT22;24488;0.000;0.000;2022-08-19T07:01:54;25.00;51.60
38746;DHT22;24488;0.000;0.000;2022-08-19T07:04:23;25.00;51.20
38746;DHT22;24488;0.000;0.000;2022-08-19T07:06:56;25.00;51.70
38746;DHT22;24488;0.000;0.000;2022-08-19T07:09:35;25.00;51.60
38746;DHT22;24488;0.000;0.000;2022-08-19T07:12:04;25.00;51.60
38746;DHT22;24488;0.000;0.000;2022-08-19T07:14:31;25.00;51.10
38746;DHT22;24488;0.000;0.000;2022-08-19T07:16:58;25.00;52.10
38746;DHT22;24488;0.000;0.000;2022-08-19T07:19:24;25.00;51.60
38746;DHT22;24488;0.000;0.000;2022-08-19T07:21:54;25.00;51.70
38746;DHT22;24488;0.000;0.000;2022-08-19T07:24:20;25.10;51.20
38746;DHT22;24488;0.000;0.000;2022-08-19T07:26:50;25.00;51.60
38746;DHT22;24488;0.000;0.000;2022-08-19T07:29:16;25.00;51.60
38746;DHT22;24488;0.000;0.000;2022-08-19T07:31:42;25.10;51.60
38746;DHT22;24488;0.000;0.000;2022-08-19T07:34:08;25.00;51.60
38746;DHT22;24488;0.000;0.000;2022-08-19T07:36:38;25.00;51.10
38746;DHT22;24488;0.000;0.000;2022-08-19T07:39:07;25.00;51.70
38746;DHT22;24488;0.000;0.000;2022-08-19T07:41:41;25.00;51.60
38746;DHT22;24488;0.000;0.000;2022-08-19T07:44:08;25.10;51.60
38746;DHT22;24488;0.000;0.000;2022-08-19T07:46:34;25.10;51.10
38746;DHT22;24488;0.000;0.000;2022-08-19T07:49:03;25.10;51.50
38746;DHT22;24488;0.000;0.000;2022-08-19T07:51:29;25.10;51.50
38746;DHT22;24488;0.000;0.000;2022-08-19T07:53:55;25.10;51.40
38746;DHT22;24488;0.000;0.000;2022-08-19T07:56:21;25.10;50.90
38746;DHT22;24488;0.000;0.000;2022-08-19T07:58:48;25.10;51.40
38746;DHT22;24488;0.000;0.000;2022-08-19T08:01:18;25.10;51.40
38746;DHT22;24488;0.000;0.000;2022-08-19T08:03:47;25.10;51.30
38746;DHT22;24488;0.000;0.000;2022-08-19T08:06:32;25.10;50.90
38746;DHT22;24488;0.000;0.000;2022-08-19T08:09:17;25.20;51.40
38746;DHT22;24488;0.000;0.000;2022-08-19T08:11:50;25.10;51.30
38746;DHT22;24488;0.000;0.000;2022-08-19T08:14:23;25.20;50.80
38746;DHT22;24488;0.000;0.000;2022-08-19T08:16:53;25.10;51.20
38746;DHT22;24488;0.000;0.000;2022-08-19T08:19:19;25.20;51.30
38746;DHT22;24488;0.000;0.000;2022-08-19T08:21:46;25.20;51.30
38746;DHT22;24488;0.000;0.000;2022-08-19T08:24:12;25.20;51.30
38746;DHT22;24488;0.000;0.000;2022-08-19T08:26:38;25.20;50.80
38746;DHT22;24488;0.000;0.000;2022-08-19T08:29:04;25.20;51.30
38746;DHT22;24488;0.000;0.000;2022-08-19T08:31:30;25.20;51.30
38746;DHT22;24488;0.000;0.000;2022-08-19T08:33:55;25.20;51.30
38746;DHT22;24488;0.000;0.000;2022-08-19T08:36:21;25.20;50.80
38746;DHT22;24488;0.000;0.000;2022-08-19T08:38:47;25.20;51.30
38746;DHT22;24488;0.000;0.000;2022-08-19T08:44:13;25.20;51.30
38746;DHT22;24488;0.000;0.000;2022-08-19T08:46:45;25.20;50.80
38746;DHT22;24488;0.000;0.000;2022-08-19T08:49:17;25.20;51.40
38746;DHT22;24488;0.000;0.000;2022-08-19T08:51:51;25.20;51.30
38746;DHT22;24488;0.000;0.000;2022-08-19T08:54:19;25.20;50.90
38746;DHT22;24488;0.000;0.000;2022-08-19T08:56:46;25.20;51.30
38746;DHT22;24488;0.000;0.000;2022-08-19T08:59:20;25.20;51.50
38746;DHT22;24488;0.000;0.000;2022-08-19T09:01:48;25.20;51.40
38746;DHT22;24488;0.000;0.000;2022-08-19T09:04:14;25.20;51.40
38746;DHT22;24488;0.000;0.000;2022-08-19T09:06:42;25.20;51.00
38746;DHT22;24488;0.000;0.000;2022-08-19T09:16:57;25.10;50.90
38746;DHT22;24488;0.000;0.000;2022-08-19T09:19:24;25.20;51.50
38746;DHT22;24488;0.000;0.000;2022-08-19T09:21:50;25.20;51.40
38746;DHT22;24488;0.000;0.000;2022-08-19T09:24:16;25.10;51.00
38746;DHT22;24488;0.000;0.000;2022-08-19T09:26:41;25.20;51.50
38746;DHT22;24488;0.000;0.000;2022-08-19T09:29:08;25.20;51.50
38746;DHT22;24488;0.000;0.000;2022-08-19T09:31:34;25.20;51.50
38746;DHT22;24488;0.000;0.000;2022-08-19T09:34:00;25.20;51.50
38746;DHT22;24488;0.000;0.000;2022-08-19T09:36:31;25.20;51.00
38746;DHT22;24488;0.000;0.000;2022-08-19T09:39:02;25.20;51.50
38746;DHT22;24488;0.000;0.000;2022-08-19T09:41:29;25.20;51.50
38746;DHT22;24488;0.000;0.000;2022-08-19T09:43:55;25.20;51.60
38746;DHT22;24488;0.000;0.000;2022-08-19T09:46:22;25.20;51.00
38746;DHT22;24488;0.000;0.000;2022-08-19T09:48:49;25.20;51.60
38746;DHT22;24488;0.000;0.000;2022-08-19T09:51:25;25.10;51.50
38746;DHT22;24488;0.000;0.000;2022-08-19T09:53:53;25.10;51.50
38746;DHT22;24488;0.000;0.000;2022-08-19T09:56:19;25.20;51.10
38746;DHT22;24488;0.000;0.000;2022-08-19T09:58:46;25.10;51.50
38746;DHT22;24488;0.000;0.000;2022-08-19T10:01:23;25.20;51.50
38746;DHT22;24488;0.000;0.000;2022-08-19T10:03:51;25.20;51.40
38746;DHT22;24488;0.000;0.000;2022-08-19T10:06:19;25.20;51.00
38746;DHT22;24488;0.000;0.000;2022-08-19T10:08:46;25.20;51.40
38746;DHT22;24488;0.000;0.000;2022-08-19T10:11:12;25.10;51.30
38746;DHT22;24488;0.000;0.000;2022-08-19T10:13:41;25.00;51.30
38746;DHT22;24488;0.000;0.000;2022-08-19T10:16:08;25.10;50.90
38746;DHT22;24488;0.000;0.000;2022-08-19T10:18:35;25.20;51.60
38746;DHT22;24488;0.000;0.000;2022-08-19T10:21:04;25.10;51.30
38746;DHT22;24488;0.000;0.000;2022-08-19T10:23:33;25.10;51.30
38746;DHT22;24488;0.000;0.000;2022-08-19T10:26:00;25.20;50.90
38746;DHT22;24488;0.000;0.000;2022-08-19T10:28:25;25.10;51.30
38746;DHT22;24488;0.000;0.000;2022-08-19T10:30:51;25.10;51.30
38746;DHT22;24488;0.000;0.000;2022-08-19T10:33:18;25.10;51.20
38746;DHT22;24488;0.000;0.000;2022-08-19T10:35:43;25.20;50.80
38746;DHT22;24488;0.000;0.000;2022-08-19T10:38:11;25.20;51.20
38746;DHT22;24488;0.000;0.000;2022-08-19T10:40:37;25.10;51.10
38746;DHT22;24488;0.000;0.000;2022-08-19T10:43:03;25.10;51.20
38746;DHT22;24488;0.000;0.000;2022-08-19T10:45:28;25.20;50.70
38746;DHT22;24488;0.000;0.000;2022-08-19T10:47:54;25.10;51.10
38746;DHT22;24488;0.000;0.000;2022-08-19T10:50:19;25.20;51.10
38746;DHT22;24488;0.000;0.000;2022-08-19T10:53:04;25.20;51.10
38746;DHT22;24488;0.000;0.000;2022-08-19T10:55:31;25.20;50.70
38746;DHT22;24488;0.000;0.000;2022-08-19T10:58:17;25.20;51.20
38746;DHT22;24488;0.000;0.000;2022-08-19T11:00:51;25.10;51.10
38746;DHT22;24488;0.000;0.000;2022-08-19T11:03:20;25.10;51.70
38746;DHT22;24488;0.000;0.000;2022-08-19T11:05:46;25.10;50.70
38746;DHT22;24488;0.000;0.000;2022-08-19T11:08:12;25.20;51.30
38746;DHT22;24488;0.000;0.000;2022-08-19T11:10:41;25.20;51.30
38746;DHT22;24488;0.000;0.000;2022-08-19T11:13:07;25.10;51.10
38746;DHT22;24488;0.000;0.000;2022-08-19T11:15:33;25.10;50.70
38746;DHT22;24488;0.000;0.000;2022-08-19T11:17:59;25.20;51.20
38746;DHT22;24488;0.000;0.000;2022-08-19T11:20:24;25.10;51.10
38746;DHT22;24488;0.000;0.000;2022-08-19T11:22:51;25.20;51.20
38746;DHT22;24488;0.000;0.000;2022-08-19T11:25:17;25.10;50.70
38746;DHT22;24488;0.000;0.000;2022-08-19T11:27:43;25.20;51.20
38746;DHT22;24488;0.000;0.000;2022-08-19T11:30:10;25.20;51.20
38746;DHT22;24488;0.000;0.000;2022-08-19T11:32:37;25.20;51.20
38746;DHT22;24488;0.000;0.000;2022-08-19T11:35:02;25.10;50.60
38746;DHT22;24488;0.000;0.000;2022-08-19T11:37:28;25.20;51.20
38746;DHT22;24488;0.000;0.000;2022-08-19T11:39:54;25.10;51.10
38746;DHT22;24488;0.000;0.000;2022-08-19T11:42:20;24.40;50.70
38746;DHT22;24488;0.000;0.000;2022-08-19T11:45:14;25.20;50.60
38746;DHT22;24488;0.000;0.000;2022-08-19T11:47:40;25.20;51.10
38746;DHT22;24488;0.000;0.000;2022-08-19T11:50:06;25.20;51.10
38746;DHT22;24488;0.000;0.000;2022-08-19T11:52:31;25.20;51.10
38746;DHT22;24488;0.000;0.000;2022-08-19T11:54:57;25.20;50.70
38746;DHT22;24488;0.000;0.000;2022-08-19T11:57:22;25.20;51.10
38746;DHT22;24488;0.000;0.000;2022-08-19T11:59:49;25.20;51.10
38746;DHT22;24488;0.000;0.000;2022-08-19T12:02:16;25.20;51.10
38746;DHT22;24488;0.000;0.000;2022-08-19T12:04:41;25.20;50.70
38746;DHT22;24488;0.000;0.000;2022-08-19T12:07:07;25.20;51.10
38746;DHT22;24488;0.000;0.000;2022-08-19T12:09:32;25.20;51.10
38746;DHT22;24488;0.000;0.000;2022-08-19T12:12:00;25.20;51.10
38746;DHT22;24488;0.000;0.000;2022-08-19T12:14:27;25.20;50.70
38746;DHT22;24488;0.000;0.000;2022-08-19T12:16:53;25.10;51.10
38746;DHT22;24488;0.000;0.000;2022-08-19T12:19:18;25.20;51.20
38746;DHT22;24488;0.000;0.000;2022-08-19T12:21:44;25.20;51.10
38746;DHT22;24488;0.000;0.000;2022-08-19T12:24:11;25.10;51.10
38746;DHT22;24488;0.000;0.000;2022-08-19T12:26:37;25.10;50.60
38746;DHT22;24488;0.000;0.000;2022-08-19T12:29:03;25.20;51.10
38746;DHT22;24488;0.000;0.000;2022-08-19T12:31:29;25.10;51.00
38746;DHT22;24488;0.000;0.000;2022-08-19T12:33:55;25.20;51.10
38746;DHT22;24488;0.000;0.000;2022-08-19T12:36:20;25.10;50.60
38746;DHT22;24488;0.000;0.000;2022-08-19T12:38:47;25.10;51.00
38746;DHT22;24488;0.000;0.000;2022-08-19T12:41:13;25.10;51.00
38746;DHT22;24488;0.000;0.000;2022-08-19T12:43:40;25.20;51.10
38746;DHT22;24488;0.000;0.000;2022-08-19T12:46:07;25.10;50.50
38746;DHT22;24488;0.000;0.000;2022-08-19T12:48:32;25.20;51.00
38746;DHT22;24488;0.000;0.000;2022-08-19T12:50:58;25.20;51.00
38746;DHT22;24488;0.000;0.000;2022-08-19T12:53:24;25.10;51.00
38746;DHT22;24488;0.000;0.000;2022-08-19T12:55:56;25.20;50.60
38746;DHT22;24488;0.000;0.000;2022-08-19T12:58:23;25.20;51.00
38746;DHT22;24488;0.000;0.000;2022-08-19T13:00:48;25.10;50.80
38746;DHT22;24488;0.000;0.000;2022-08-19T13:03:14;25.20;50.90
38746;DHT22;24488;0.000;0.000;2022-08-19T13:05:40;25.20;50.50
38746;DHT22;24488;0.000;0.000;2022-08-19T13:08:06;25.10;50.90
38746;DHT22;24488;0.000;0.000;2022-08-19T13:10:32;25.20;50.90
38746;DHT22;24488;0.000;0.000;2022-08-19T13:13:00;25.10;50.80
38746;DHT22;24488;0.000;0.000;2022-08-19T13:15:33;25.10;50.30
38746;DHT22;24488;0.000;0.000;2022-08-19T13:18:02;25.20;50.80
38746;DHT22;24488;0.000;0.000;2022-08-19T13:20:29;25.20;50.80
38746;DHT22;24488;0.000;0.000;2022-08-19T13:22:54;25.10;50.80
38746;DHT22;24488;0.000;0.000;2022-08-19T13:25:20;25.20;50.20
38746;DHT22;24488;0.000;0.000;2022-08-19T13:27:46;25.10;50.60
38746;DHT22;24488;0.000;0.000;2022-08-19T13:30:13;25.20;50.70
38746;DHT22;24488;0.000;0.000;2022-08-19T13:32:58;25.10;50.60
38746;DHT22;24488;0.000;0.000;2022-08-19T13:35:51;25.10;50.20
38746;DHT22;24488;0.000;0.000;2022-08-19T13:38:22;25.20;50.70
38746;DHT22;24488;0.000;0.000;2022-08-19T13:40:49;25.20;50.60
38746;DHT22;24488;0.000;0.000;2022-08-19T13:43:17;25.20;50.50
38746;DHT22;24488;0.000;0.000;2022-08-19T13:45:44;25.10;50.00
38746;DHT22;24488;0.000;0.000;2022-08-19T13:48:10;25.10;50.40
38746;DHT22;24488;0.000;0.000;2022-08-19T13:50:40;25.10;50.50
38746;DHT22;24488;0.000;0.000;2022-08-19T13:53:08;25.20;50.50
38746;DHT22;24488;0.000;0.000;2022-08-19T13:55:35;25.10;50.00
38746;DHT22;24488;0.000;0.000;2022-08-19T13:58:03;25.20;50.50
38746;DHT22;24488;0.000;0.000;2022-08-19T14:00:30;25.20;50.40
38746;DHT22;24488;0.000;0.000;2022-08-19T14:02:57;25.20;50.50
38746;DHT22;24488;0.000;0.000;2022-08-19T14:05:23;25.20;49.70
38746;DHT22;24488;0.000;0.000;2022-08-19T14:07:50;25.20;50.20
38746;DHT22;24488;0.000;0.000;2022-08-19T14:10:16;25.20;49.90
38746;DHT22;24488;0.000;0.000;2022-08-19T14:12:42;25.20;50.00
38746;DHT22;24488;0.000;0.000;2022-08-19T14:15:08;25.20;49.20
38746;DHT22;24488;0.000;0.000;2022-08-19T14:17:37;25.20;49.20
38746;DHT22;24488;0.000;0.000;2022-08-19T14:20:04;25.20;49.60
38746;DHT22;24488;0.000;0.000;2022-08-19T14:22:34;25.20;49.70
38746;DHT22;24488;0.000;0.000;2022-08-19T14:25:03;25.10;49.60
38746;DHT22;24488;0.000;0.000;2022-08-19T14:27:32;25.10;49.00
38746;DHT22;24488;0.000;0.000;2022-08-19T14:29:59;25.10;49.50
38746;DHT22;24488;0.000;0.000;2022-08-19T14:32:25;25.10;49.60
38746;DHT22;24488;0.000;0.000;2022-08-19T14:34:52;25.10;49.60
38746;DHT22;24488;0.000;0.000;2022-08-19T14:37:19;25.10;49.30
38746;DHT22;24488;0.000;0.000;2022-08-19T14:39:47;25.20;49.80
38746;DHT22;24488;0.000;0.000;2022-08-19T14:42:13;25.10;49.70
38746;DHT22;24488;0.000;0.000;2022-08-19T14:44:42;25.10;49.70
38746;DHT22;24488;0.000;0.000;2022-08-19T14:47:07;25.10;49.40
38746;DHT22;24488;0.000;0.000;2022-08-19T14:49:34;25.10;49.90
38746;DHT22;24488;0.000;0.000;2022-08-19T14:52:01;24.90;49.70
38746;DHT22;24488;0.000;0.000;2022-08-19T14:54:28;25.10;49.80
38746;DHT22;24488;0.000;0.000;2022-08-19T14:59:19;25.10;49.40
38746;DHT22;24488;0.000;0.000;2022-08-19T15:01:45;25.10;49.80
38746;DHT22;24488;0.000;0.000;2022-08-19T15:04:10;25.10;49.80
38746;DHT22;24488;0.000;0.000;2022-08-19T15:06:36;25.20;49.80
38746;DHT22;24488;0.000;0.000;2022-08-19T15:09:03;25.20;49.30
38746;DHT22;24488;0.000;0.000;2022-08-19T15:11:29;25.20;49.80
38746;DHT22;24488;0.000;0.000;2022-08-19T15:13:55;25.20;49.70
38746;DHT22;24488;0.000;0.000;2022-08-19T15:16:21;25.20;49.70
38746;DHT22;24488;0.000;0.000;2022-08-19T15:18:49;25.20;49.20
38746;DHT22;24488;0.000;0.000;2022-08-19T15:21:16;25.20;49.70
38746;DHT22;24488;0.000;0.000;2022-08-19T15:23:42;25.10;49.60
38746;DHT22;24488;0.000;0.000;2022-08-19T15:26:09;25.10;49.60
38746;DHT22;24488;0.000;0.000;2022-08-19T15:28:35;25.10;49.20
38746;DHT22;24488;0.000;0.000;2022-08-19T15:31:01;25.10;49.70
38746;DHT22;24488;0.000;0.000;2022-08-19T15:33:27;25.10;49.70
38746;DHT22;24488;0.000;0.000;2022-08-19T15:35:53;25.10;50.10
38746;DHT22;24488;0.000;0.000;2022-08-19T15:38:19;25.10;49.30
38746;DHT22;24488;0.000;0.000;2022-08-19T15:40:47;25.10;49.70
38746;DHT22;24488;0.000;0.000;2022-08-19T15:43:14;25.10;49.70
38746;DHT22;24488;0.000;0.000;2022-08-19T15:45:41;25.20;49.80
38746;DHT22;24488;0.000;0.000;2022-08-19T15:48:08;25.10;49.30
38746;DHT22;24488;0.000;0.000;2022-08-19T15:50:34;25.10;49.80
38746;DHT22;24488;0.000;0.000;2022-08-19T15:53:01;25.10;49.70
38746;DHT22;24488;0.000;0.000;2022-08-19T15:55:30;25.20;49.70
38746;DHT22;24488;0.000;0.000;2022-08-19T15:57:58;25.10;49.30
38746;DHT22;24488;0.000;0.000;2022-08-19T16:00:43;25.10;49.80
38746;DHT22;24488;0.000;0.000;2022-08-19T16:03:27;24.40;49.50